createdAt,value
2019-04-10T00:00:23.145Z,93121.86
2019-04-10T00:02:51.858Z,93131.91
2019-04-10T00:05:20.477Z,93124.88
2019-04-10T00:07:50.022Z,93125.10
2019-04-10T00:10:19.390Z,93127.22
2019-04-10T00:12:48.096Z,93130.45
2019-04-10T00:15:18.232Z,93122.60
2019-04-10T00:17:47.238Z,93128.92
2019-04-10T00:20:16.310Z,93122.77
2019-04-10T00:22:44.958Z,93128.16
2019-04-10T00:25:14.910Z,93127.31
2019-04-10T00:27:43.567Z,93126.19
2019-04-10T00:30:13.202Z,93131.17
2019-04-10T00:32:41.931Z,93131.18
2019-04-10T00:35:10.813Z,93122.38
2019-04-10T00:37:39.541Z,93120.09
2019-04-10T00:40:08.822Z,93120.45
2019-04-10T00:42:37.546Z,93116.83
2019-04-10T00:45:09.177Z,93115.50
2019-04-10T00:47:37.786Z,93109.56
2019-04-10T00:50:06.692Z,93111.86
2019-04-10T00:52:35.331Z,93109.78
2019-04-10T00:55:05.647Z,93106.34
2019-04-10T00:57:34.377Z,93108.03
2019-04-10T01:00:03.001Z,93111.07
2019-04-10T01:02:32.375Z,93112.83
2019-04-10T01:05:01.069Z,93113.94
2019-04-10T01:07:37.592Z,93115.06
2019-04-10T01:10:00.148Z,93113.36
2019-04-10T01:12:28.775Z,93119.38
2019-04-10T01:14:58.175Z,93112.35
2019-04-10T01:17:26.942Z,93111.85
2019-04-10T01:19:56.519Z,93109.55
2019-04-10T01:22:25.376Z,93107.84
2019-04-10T01:24:54.433Z,93104.02
2019-04-10T01:27:23.665Z,93101.89
2019-04-10T01:29:52.357Z,93110.52
2019-04-10T01:32:21.114Z,93104.78
2019-04-10T01:34:49.777Z,93093.50
2019-04-10T01:37:18.746Z,93094.84
2019-04-10T01:39:48.555Z,93103.04
2019-04-10T01:42:17.232Z,93103.19
2019-04-10T01:44:46.767Z,93100.16
2019-04-10T01:47:15.720Z,93096.19
2019-04-10T01:49:44.366Z,93094.23
2019-04-10T01:52:13.050Z,93099.95
2019-04-10T01:54:44.567Z,93098.39
2019-04-10T01:57:13.118Z,93091.17
2019-04-10T01:59:42.424Z,93097.12
2019-04-10T02:02:31.616Z,93092.84
2019-04-10T02:05:00.656Z,93096.66
2019-04-10T02:07:29.924Z,93104.34
2019-04-10T02:09:59.509Z,93094.40
2019-04-10T02:12:28.489Z,93102.84
2019-04-10T02:14:57.114Z,93096.55
2019-04-10T02:17:25.770Z,93101.30
2019-04-10T02:19:54.632Z,93091.17
2019-04-10T02:22:24.405Z,93089.27
2019-04-10T02:24:53.536Z,93090.80
2019-04-10T02:27:22.481Z,93087.56
2019-04-10T02:29:52.251Z,93086.23
2019-04-10T02:32:21.256Z,93082.55
2019-04-10T02:34:50.691Z,93083.70
2019-04-10T02:37:19.455Z,93087.53
2019-04-10T02:39:52.184Z,93089.41
2019-04-10T02:42:18.787Z,93086.00
2019-04-10T02:44:48.353Z,93088.11
2019-04-10T02:47:19.238Z,93085.99
2019-04-10T02:49:49.276Z,93089.08
2019-04-10T02:52:17.916Z,93082.38
2019-04-10T02:54:46.570Z,93091.57
2019-04-10T02:57:17.197Z,93086.02
2019-04-10T02:59:46.970Z,93084.86
2019-04-10T03:02:16.183Z,93087.17
2019-04-10T03:04:44.924Z,93085.25
2019-04-10T03:07:13.550Z,93083.72
2019-04-10T03:09:56.291Z,93087.50
2019-04-10T03:12:14.364Z,93091.34
2019-04-10T03:14:45.227Z,93094.80
2019-04-10T03:17:13.324Z,93092.50
2019-04-10T03:19:41.948Z,93091.16
2019-04-10T03:22:10.611Z,93094.03
2019-04-10T03:24:40.131Z,93093.81
2019-04-10T03:27:08.772Z,93098.50
2019-04-10T03:29:38.003Z,93094.41
2019-04-10T03:32:28.508Z,93094.59
2019-04-10T03:34:56.723Z,93099.94
2019-04-10T03:37:26.439Z,93089.97
2019-04-10T03:39:55.296Z,93098.45
2019-04-10T03:42:23.909Z,93094.60
2019-04-10T03:44:52.527Z,93094.59
2019-04-10T03:47:21.335Z,93097.66
2019-04-10T03:49:49.963Z,93111.08
2019-04-10T03:52:19.032Z,93110.52
2019-04-10T03:54:48.145Z,93115.67
2019-04-10T03:57:16.830Z,93124.64
2019-04-10T03:59:45.544Z,93117.58
2019-04-10T04:02:14.206Z,93116.07
2019-04-10T04:04:43.815Z,93120.86
2019-04-10T04:07:13.393Z,93126.78
2019-04-10T04:09:42.089Z,93131.03
2019-04-10T04:12:10.718Z,93124.11
2019-04-10T04:14:39.395Z,93138.85
2019-04-10T04:17:08.181Z,93137.14
2019-04-10T04:19:37.907Z,93144.38
2019-04-10T04:22:06.690Z,93135.41
2019-04-10T04:24:35.751Z,93144.44
2019-04-10T04:27:04.811Z,93143.09
2019-04-10T04:29:34.426Z,93148.65
2019-04-10T04:32:03.122Z,93142.91
2019-04-10T04:34:31.736Z,93140.98
2019-04-10T04:37:00.453Z,93143.25
2019-04-10T04:39:30.494Z,93143.83
2019-04-10T04:41:59.496Z,93146.15
2019-04-10T04:44:29.206Z,93159.32
2019-04-10T04:46:58.895Z,93155.78
2019-04-10T04:49:28.377Z,93161.16
2019-04-10T04:51:58.133Z,93161.36
2019-04-10T04:54:26.833Z,93164.11
2019-04-10T04:56:56.154Z,93157.61
2019-04-10T04:59:24.758Z,93159.55
2019-04-10T05:01:53.507Z,93159.89
2019-04-10T05:04:22.919Z,93163.59
2019-04-10T05:06:52.144Z,93169.11
2019-04-10T05:09:29.859Z,93169.91
2019-04-10T05:11:51.152Z,93173.74
2019-04-10T05:14:19.784Z,93180.63
2019-04-10T05:16:48.451Z,93181.00
2019-04-10T05:19:17.403Z,93177.77
2019-04-10T05:21:45.994Z,93178.52
2019-04-10T05:24:15.700Z,93188.69
2019-04-10T05:26:44.842Z,93185.60
2019-04-10T05:29:13.480Z,93184.45
2019-04-10T05:31:42.666Z,93193.47
2019-04-10T05:34:11.508Z,93192.66
2019-04-10T05:36:40.160Z,93197.42
2019-04-10T05:39:08.826Z,93197.61
2019-04-10T05:41:37.885Z,93199.00
2019-04-10T05:44:07.446Z,93201.84
2019-04-10T05:46:36.753Z,93196.55
2019-04-10T05:49:06.664Z,93197.10
2019-04-10T05:51:35.411Z,93202.05
2019-04-10T05:54:04.063Z,93199.32
2019-04-10T05:56:32.692Z,93203.63
2019-04-10T05:59:01.321Z,93204.37
2019-04-10T06:01:35.480Z,93203.05
2019-04-10T06:04:00.915Z,93197.68
2019-04-10T06:06:30.626Z,93202.83
2019-04-10T06:09:00.456Z,93194.73
2019-04-10T06:11:29.105Z,93196.31
2019-04-10T06:13:59.049Z,93191.30
2019-04-10T06:16:28.179Z,93203.97
2019-04-10T06:18:57.601Z,93193.83
2019-04-10T06:21:27.278Z,93204.17
2019-04-10T06:23:56.844Z,93199.80
2019-04-10T06:26:28.043Z,93207.45
2019-04-10T06:28:56.864Z,93208.95
2019-04-10T06:31:25.574Z,93212.78
2019-04-10T06:33:54.196Z,93213.35
2019-04-10T06:36:22.827Z,93225.02
2019-04-10T06:38:51.570Z,93228.47
2019-04-10T06:41:20.205Z,93231.41
2019-04-10T06:43:49.655Z,93231.17
2019-04-10T06:46:18.371Z,93236.74
2019-04-10T07:01:15.230Z,93234.19
2019-04-10T07:03:51.877Z,93238.60
2019-04-10T07:06:19.026Z,93235.94
2019-04-10T07:08:49.858Z,93237.53
2019-04-10T07:11:18.090Z,93241.55
2019-04-10T07:13:45.324Z,93233.86
2019-04-10T07:16:14.003Z,93235.95
2019-04-10T07:18:45.890Z,93237.30
2019-04-10T07:21:12.970Z,93234.84
2019-04-10T07:23:42.737Z,93233.84
2019-04-10T07:26:14.499Z,93238.50
2019-04-10T07:28:44.909Z,93243.66
2019-04-10T07:31:13.033Z,93238.88
2019-04-10T07:33:42.580Z,93243.47
2019-04-10T07:36:12.857Z,93252.47
2019-04-10T07:38:41.617Z,93256.89
2019-04-10T07:41:17.091Z,93257.05
2019-04-10T07:43:40.700Z,93266.93
2019-04-10T07:46:09.390Z,93259.37
2019-04-10T07:48:38.026Z,93262.65
2019-04-10T07:51:07.009Z,93251.70
2019-04-10T07:53:35.696Z,93259.50
2019-04-10T07:56:07.597Z,93263.59
2019-04-10T07:58:35.528Z,93258.01
2019-04-10T08:01:05.232Z,93253.63
2019-04-10T08:03:33.801Z,93258.75
2019-04-10T08:06:02.475Z,93250.34
2019-04-10T08:08:31.160Z,93255.89
2019-04-10T08:10:59.790Z,93260.66
2019-04-10T08:13:28.906Z,93270.13
2019-04-10T08:15:58.485Z,93264.94
2019-04-10T08:18:27.618Z,93268.20
2019-04-10T08:20:57.288Z,93265.64
2019-04-10T08:23:26.063Z,93260.86
2019-04-10T08:25:55.882Z,93251.80
2019-04-10T08:28:24.579Z,93252.17
2019-04-10T08:30:53.242Z,93247.68
2019-04-10T08:33:21.899Z,93250.91
2019-04-10T08:35:50.565Z,93257.55
2019-04-10T08:38:19.256Z,93265.13
2019-04-10T08:40:48.232Z,93272.16
2019-04-10T08:43:17.044Z,93279.45
2019-04-10T08:45:49.982Z,93278.72
2019-04-10T08:48:16.045Z,93277.89
2019-04-10T08:50:44.672Z,93282.90
2019-04-10T08:53:13.853Z,93280.48
2019-04-10T08:55:42.550Z,93282.75
2019-04-10T08:58:11.467Z,93281.05
2019-04-10T09:00:40.702Z,93280.86
2019-04-10T09:03:09.396Z,93287.73
2019-04-10T09:05:38.024Z,93293.09
2019-04-10T09:08:06.697Z,93285.41
2019-04-10T09:10:36.566Z,93287.55
2019-04-10T09:13:06.235Z,93291.59
2019-04-10T09:15:36.055Z,93295.30
2019-04-10T09:18:06.008Z,93280.38
2019-04-10T09:20:35.114Z,93283.98
2019-04-10T09:23:28.598Z,93285.62
2019-04-10T09:25:35.271Z,93282.16
2019-04-10T09:28:04.327Z,93277.85
2019-04-10T09:30:33.934Z,93280.95
2019-04-10T09:33:15.969Z,93277.45
2019-04-10T09:35:33.404Z,93273.39
2019-04-10T09:38:02.216Z,93272.16
2019-04-10T09:40:32.006Z,93272.61
2019-04-10T09:43:00.819Z,93278.41
2019-04-10T09:45:30.540Z,93272.25
2019-04-10T09:47:59.985Z,93278.37
2019-04-10T09:50:28.675Z,93269.76
2019-04-10T09:52:57.354Z,93274.77
2019-04-10T09:55:25.977Z,93267.12
2019-04-10T09:57:54.613Z,93260.16
2019-04-10T10:00:24.053Z,93262.62
2019-04-10T10:02:52.974Z,93274.40
2019-04-10T10:05:22.335Z,93260.16
2019-04-10T10:07:51.159Z,93267.89
2019-04-10T10:10:20.665Z,93263.80
2019-04-10T10:12:50.453Z,93263.83
2019-04-10T10:15:19.239Z,93252.93
2019-04-10T10:17:48.826Z,93250.78
2019-04-10T10:20:17.777Z,93255.05
2019-04-10T10:22:47.477Z,93253.27
2019-04-10T10:25:17.412Z,93254.45
2019-04-10T10:27:46.867Z,93252.74
2019-04-10T10:30:15.820Z,93242.75
2019-04-10T10:32:45.539Z,93253.39
2019-04-10T10:35:14.682Z,93260.61
2019-04-10T10:37:43.402Z,93245.73
2019-04-10T10:40:12.628Z,93249.17
2019-04-10T10:42:41.562Z,93239.44
2019-04-10T10:45:10.760Z,93236.72
2019-04-10T10:47:40.367Z,93239.83
2019-04-10T10:50:09.783Z,93233.11
2019-04-10T10:52:39.649Z,93239.09
2019-04-10T10:55:09.737Z,93238.19
2019-04-10T10:57:39.455Z,93246.78
2019-04-10T11:00:11.469Z,93246.73
2019-04-10T11:02:38.996Z,93234.93
2019-04-10T11:05:08.806Z,93247.73
2019-04-10T11:07:38.897Z,93252.78
2019-04-10T11:10:08.489Z,93242.88
2019-04-10T11:12:38.422Z,93248.33
2019-04-10T11:15:07.848Z,93250.05
2019-04-10T11:17:38.460Z,93246.89
2019-04-10T11:20:10.048Z,93242.54
2019-04-10T11:22:39.735Z,93232.95
2019-04-10T11:25:08.742Z,93241.95
2019-04-10T11:27:37.400Z,93242.42
2019-04-10T11:30:08.398Z,93248.28
2019-04-10T11:32:38.240Z,93246.13
2019-04-10T11:35:07.767Z,93237.23
2019-04-10T11:37:43.831Z,93243.45
2019-04-10T11:40:08.833Z,93228.80
2019-04-10T11:42:39.759Z,93234.21
2019-04-10T11:45:10.676Z,93236.08
2019-04-10T11:47:39.590Z,93240.33
2019-04-10T11:50:13.506Z,93243.77
2019-04-10T11:52:46.601Z,93241.78
2019-04-10T11:55:15.964Z,93247.16
2019-04-10T11:57:41.961Z,93235.33
2019-04-10T12:02:47.030Z,93232.64
2019-04-10T12:05:18.513Z,93228.09
2019-04-10T12:08:27.699Z,93231.88
2019-04-10T12:12:44.061Z,93226.75
2019-04-10T12:15:12.688Z,93230.34
2019-04-10T12:17:42.929Z,93231.47
2019-04-10T12:20:13.096Z,93228.14
2019-04-10T12:22:41.794Z,93236.61
2019-04-10T12:25:12.317Z,93224.81
2019-04-10T12:27:41.219Z,93216.45
2019-04-10T12:30:13.424Z,93217.10
2019-04-10T12:32:43.079Z,93215.10
2019-04-10T12:35:11.710Z,93209.70
2019-04-10T12:37:41.242Z,93210.76
2019-04-10T12:40:10.146Z,93207.47
2019-04-10T12:42:38.820Z,93211.05
2019-04-10T12:45:08.291Z,93216.58
2019-04-10T12:47:37.733Z,93217.13
2019-04-10T12:50:08.191Z,93224.15
2019-04-10T12:52:36.841Z,93217.70
2019-04-10T12:55:06.369Z,93222.59
2019-04-10T12:57:35.039Z,93228.88
2019-04-10T13:00:06.750Z,93229.77
2019-04-10T13:02:36.463Z,93219.09
2019-04-10T13:05:07.241Z,93220.52
2019-04-10T13:07:36.008Z,93223.61
2019-04-10T13:10:08.707Z,93213.82
2019-04-10T13:12:37.695Z,93215.44
2019-04-10T13:15:08.159Z,93219.67
2019-04-10T13:17:36.816Z,93216.09
2019-04-10T13:20:11.209Z,93215.02
2019-04-10T13:22:40.206Z,93211.19
2019-04-10T13:25:10.264Z,93211.66
2019-04-10T13:27:39.142Z,93214.03
2019-04-10T13:30:12.134Z,93219.48
2019-04-10T13:32:40.439Z,93216.50
2019-04-10T13:35:10.352Z,93219.91
2019-04-10T13:37:38.992Z,93214.44
2019-04-10T13:40:07.882Z,93217.63
2019-04-10T13:42:37.146Z,93216.38
2019-04-10T13:45:07.987Z,93213.91
2019-04-10T13:47:36.711Z,93215.50
2019-04-10T13:50:07.193Z,93217.49
2019-04-10T13:52:38.505Z,93218.24
2019-04-10T13:55:08.860Z,93215.63
2019-04-10T13:57:39.192Z,93218.27
2019-04-10T14:00:09.707Z,93222.64
2019-04-10T14:02:39.514Z,93230.30
2019-04-10T14:05:11.504Z,93225.95
2019-04-10T14:07:40.338Z,93230.49
2019-04-10T14:10:10.391Z,93220.48
2019-04-10T14:12:39.214Z,93227.10
2019-04-10T14:15:08.158Z,93225.85
2019-04-10T14:17:37.616Z,93231.18
2019-04-10T14:20:07.046Z,93230.75
2019-04-10T14:22:37.902Z,93225.08
2019-04-10T14:25:09.624Z,93229.58
2019-04-10T14:27:38.558Z,93230.02
2019-04-10T14:30:11.306Z,93232.19
2019-04-10T14:32:40.072Z,93224.81
2019-04-10T14:35:09.959Z,93227.94
2019-04-10T14:37:38.708Z,93234.02
2019-04-10T14:40:10.241Z,93233.42
2019-04-10T14:42:38.881Z,93235.23
2019-04-10T14:45:08.902Z,93227.86
2019-04-10T14:47:37.725Z,93231.91
2019-04-10T14:50:07.543Z,93236.47
2019-04-10T14:52:37.127Z,93233.99
2019-04-10T14:55:06.238Z,93229.53
2019-04-10T14:57:35.091Z,93227.74
2019-04-10T15:00:06.398Z,93223.68
2019-04-10T15:02:35.137Z,93220.06
2019-04-10T15:05:05.745Z,93219.61
2019-04-10T15:07:35.200Z,93224.79
2019-04-10T15:10:04.321Z,93226.68
2019-04-10T15:12:32.953Z,93216.02
2019-04-10T15:15:01.776Z,93218.22
2019-04-10T15:17:30.844Z,93216.87
2019-04-10T15:20:00.651Z,93212.45
2019-04-10T15:22:29.330Z,93211.05
2019-04-10T15:24:57.969Z,93202.48
2019-04-10T15:27:27.117Z,93204.71
2019-04-10T15:29:56.784Z,93205.61
2019-04-10T15:32:25.464Z,93206.66
2019-04-10T15:34:54.166Z,93209.08
2019-04-10T15:37:22.906Z,93213.59
2019-04-10T15:39:51.873Z,93223.28
2019-04-10T15:42:21.718Z,93212.65
2019-04-10T15:44:50.379Z,93219.61
2019-04-10T15:47:22.320Z,93214.38
2019-04-10T15:49:49.455Z,93213.45
2019-04-10T15:52:18.156Z,93221.20
2019-04-10T15:54:47.880Z,93220.75
2019-04-10T15:57:16.530Z,93222.20
2019-04-10T15:59:46.293Z,93223.67
2019-04-10T16:02:15.394Z,93218.91
2019-04-10T16:04:44.439Z,93223.47
2019-04-10T16:07:14.090Z,93223.14
2019-04-10T16:09:47.392Z,93227.70
2019-04-10T16:12:14.804Z,93227.70
2019-04-10T16:14:44.453Z,93228.95
2019-04-10T16:17:26.950Z,93227.23
2019-04-10T16:20:00.156Z,93231.28
2019-04-10T16:22:31.211Z,93233.54
2019-04-10T16:25:01.605Z,93231.84
